createdAt,value
2019-03-24T00:00:02.452Z,22.53
2019-03-24T00:02:30.938Z,23.57
2019-03-24T00:04:59.396Z,23.50
2019-03-24T00:07:27.820Z,23.40
2019-03-24T00:09:56.262Z,26.07
2019-03-24T00:12:24.744Z,26.17
2019-03-24T00:14:53.143Z,26.70
2019-03-24T00:17:21.574Z,26.87
2019-03-24T00:19:49.982Z,27.93
2019-03-24T00:22:18.545Z,32.27
2019-03-24T00:24:46.997Z,30.10
2019-03-24T00:27:15.428Z,32.97
2019-03-24T00:29:43.823Z,32.57
2019-03-24T00:32:12.291Z,34.87
2019-03-24T00:34:40.689Z,35.47
2019-03-24T00:37:09.110Z,36.87
2019-03-24T00:39:37.539Z,36.80
2019-03-24T00:42:05.961Z,38.37
2019-03-24T00:44:34.496Z,37.33
2019-03-24T00:47:02.949Z,38.50
2019-03-24T00:49:31.362Z,38.53
2019-03-24T00:51:59.888Z,38.57
2019-03-24T00:54:28.334Z,39.47
2019-03-24T00:56:56.770Z,37.60
2019-03-24T00:59:25.217Z,39.03
2019-03-24T01:01:53.647Z,38.23
2019-03-24T01:04:22.090Z,38.50
2019-03-24T01:06:50.753Z,39.90
2019-03-24T01:09:19.223Z,39.53
2019-03-24T01:11:47.696Z,39.93
2019-03-24T01:14:16.126Z,39.50
2019-03-24T01:16:44.522Z,40.13
2019-03-24T01:19:12.909Z,41.70
2019-03-24T01:21:41.290Z,40.47
2019-03-24T01:24:09.740Z,41.90
2019-03-24T01:26:38.220Z,38.67
2019-03-24T01:29:06.716Z,40.90
2019-03-24T01:31:35.113Z,41.97
2019-03-24T01:34:03.505Z,40.23
2019-03-24T01:36:31.960Z,42.70
2019-03-24T01:39:00.366Z,41.10
2019-03-24T01:41:28.747Z,42.57
2019-03-24T01:43:57.174Z,41.47
2019-03-24T01:46:25.638Z,44.43
2019-03-24T01:48:54.105Z,40.80
2019-03-24T01:51:22.496Z,41.13
2019-03-24T01:53:50.899Z,39.97
2019-03-24T01:56:19.314Z,41.60
2019-03-24T01:58:47.810Z,41.73
2019-03-24T02:01:16.830Z,41.00
2019-03-24T02:03:45.295Z,40.07
2019-03-24T02:06:13.717Z,42.63
2019-03-24T02:08:42.104Z,44.53
2019-03-24T02:11:10.498Z,43.10
2019-03-24T02:13:38.988Z,43.10
2019-03-24T02:16:09.675Z,44.50
2019-03-24T02:18:37.863Z,45.73
2019-03-24T02:21:06.296Z,44.83
2019-03-24T02:23:34.683Z,45.43
2019-03-24T02:26:03.139Z,45.87
2019-03-24T02:28:31.596Z,44.93
2019-03-24T02:31:00.025Z,48.53
2019-03-24T02:33:28.412Z,48.33
2019-03-24T02:35:56.888Z,50.63
2019-03-24T02:38:25.306Z,51.27
2019-03-24T02:40:53.727Z,48.77
2019-03-24T02:43:22.146Z,50.27
2019-03-24T02:45:50.575Z,50.77
2019-03-24T02:48:18.998Z,51.67
2019-03-24T02:50:47.430Z,52.47
2019-03-24T02:53:15.885Z,55.13
2019-03-24T02:55:44.285Z,53.17
2019-03-24T02:58:12.723Z,53.83
2019-03-24T03:00:41.171Z,53.80
2019-03-24T03:03:09.661Z,57.70
2019-03-24T03:05:38.101Z,55.17
2019-03-24T03:08:06.506Z,56.90
2019-03-24T03:10:34.948Z,56.93
2019-03-24T03:13:03.354Z,60.27
2019-03-24T03:15:31.799Z,60.50
2019-03-24T03:18:00.214Z,59.30
2019-03-24T03:20:28.609Z,56.50
2019-03-24T03:22:57.006Z,60.93
2019-03-24T03:25:25.473Z,61.83
2019-03-24T03:27:53.875Z,63.03
2019-03-24T03:30:22.321Z,62.27
2019-03-24T03:32:50.721Z,64.83
2019-03-24T03:35:19.107Z,67.63
2019-03-24T03:37:47.501Z,66.10
2019-03-24T03:40:16.164Z,66.53
2019-03-24T03:42:44.690Z,64.87
2019-03-24T03:45:14.969Z,68.37
2019-03-24T03:47:43.363Z,63.20
2019-03-24T03:50:12.037Z,67.37
2019-03-24T03:52:40.455Z,64.50
2019-03-24T03:55:08.964Z,68.43
2019-03-24T03:57:37.351Z,64.13
2019-03-24T04:00:09.723Z,68.87
2019-03-24T04:02:38.129Z,65.70
2019-03-24T04:05:07.160Z,65.13
2019-03-24T04:07:35.577Z,67.17
2019-03-24T04:10:04.896Z,71.37
2019-03-24T04:12:33.290Z,67.60
2019-03-24T04:15:01.768Z,69.07
2019-03-24T04:17:30.169Z,74.30
2019-03-24T04:19:58.585Z,70.50
2019-03-24T04:22:26.964Z,71.43
2019-03-24T04:24:55.363Z,66.73
2019-03-24T04:27:23.787Z,68.50
2019-03-24T04:29:52.269Z,67.07
2019-03-24T04:32:20.664Z,67.20
2019-03-24T04:34:49.060Z,70.27
2019-03-24T04:37:17.454Z,73.70
2019-03-24T04:39:45.882Z,71.43
2019-03-24T04:42:14.287Z,72.80
2019-03-24T04:44:42.796Z,67.47
2019-03-24T04:47:16.601Z,68.63
2019-03-24T04:49:41.433Z,65.63
2019-03-24T04:52:09.847Z,70.77
2019-03-24T04:54:38.356Z,73.03
2019-03-24T04:57:06.718Z,72.50
2019-03-24T04:59:35.108Z,71.07
2019-03-24T05:02:03.498Z,67.30
2019-03-24T05:04:31.916Z,72.83
2019-03-24T05:07:00.285Z,71.13
2019-03-24T05:09:28.747Z,65.90
2019-03-24T05:11:57.148Z,68.50
2019-03-24T05:14:25.543Z,73.27
2019-03-24T05:16:53.963Z,74.20
2019-03-24T05:19:22.337Z,67.70
2019-03-24T05:21:50.884Z,70.87
2019-03-24T05:24:19.344Z,68.83
2019-03-24T05:26:47.766Z,67.07
2019-03-24T05:29:16.164Z,69.63
2019-03-24T05:31:44.561Z,70.93
2019-03-24T05:34:12.952Z,67.70
2019-03-24T05:36:41.377Z,70.40
2019-03-24T05:39:09.913Z,63.63
2019-03-24T05:41:38.504Z,70.43
2019-03-24T05:44:06.927Z,72.70
2019-03-24T05:46:35.333Z,73.70
2019-03-24T05:49:03.780Z,74.97
2019-03-24T05:51:32.173Z,73.37
2019-03-24T05:54:00.596Z,73.33
2019-03-24T05:56:28.961Z,71.43
2019-03-24T05:58:57.410Z,71.77
2019-03-24T06:01:25.847Z,70.57
2019-03-24T06:03:54.354Z,64.57
2019-03-24T06:06:22.737Z,69.63
2019-03-24T06:08:51.134Z,69.40
2019-03-24T06:11:19.525Z,67.30
2019-03-24T06:13:47.935Z,67.13
2019-03-24T06:16:16.354Z,68.27
2019-03-24T06:18:44.817Z,66.33
2019-03-24T06:21:13.313Z,67.93
2019-03-24T06:23:41.745Z,69.00
2019-03-24T06:26:10.132Z,66.83
2019-03-24T06:28:38.528Z,71.20
2019-03-24T06:31:06.997Z,69.03
2019-03-24T06:33:35.469Z,66.43
2019-03-24T06:36:03.957Z,66.03
2019-03-24T06:38:32.345Z,66.37
2019-03-24T06:41:00.752Z,67.30
2019-03-24T06:43:29.285Z,66.00
2019-03-24T06:45:57.680Z,68.07
2019-03-24T06:48:26.145Z,66.57
2019-03-24T06:50:54.551Z,66.00
2019-03-24T06:53:23.061Z,66.60
2019-03-24T06:55:51.460Z,66.07
2019-03-24T06:58:19.922Z,67.27
2019-03-24T07:00:48.330Z,67.43
2019-03-24T07:03:16.723Z,67.10
2019-03-24T07:05:45.124Z,62.20
2019-03-24T07:08:13.503Z,64.27
2019-03-24T07:10:42.802Z,61.67
2019-03-24T07:13:11.266Z,63.47
2019-03-24T07:15:39.779Z,63.47
2019-03-24T07:18:08.929Z,63.43
2019-03-24T07:20:37.382Z,62.70
2019-03-24T07:23:07.695Z,61.40
2019-03-24T07:25:36.108Z,59.50
2019-03-24T07:28:04.584Z,57.67
2019-03-24T07:30:32.972Z,60.43
2019-03-24T07:33:01.359Z,61.50
2019-03-24T07:35:29.778Z,58.33
2019-03-24T07:37:58.172Z,57.80
2019-03-24T07:40:26.557Z,58.37
2019-03-24T07:42:55.024Z,57.07
2019-03-24T07:45:23.428Z,57.70
2019-03-24T07:47:52.183Z,56.20
2019-03-24T07:50:20.641Z,56.43
2019-03-24T07:52:49.026Z,54.80
2019-03-24T07:55:17.434Z,57.23
2019-03-24T07:57:45.876Z,57.53
2019-03-24T08:00:15.870Z,56.30
2019-03-24T08:02:51.643Z,55.33
2019-03-24T08:05:20.056Z,55.83
2019-03-24T08:07:48.495Z,55.83
2019-03-24T08:10:16.899Z,53.87
2019-03-24T08:12:45.316Z,54.77
2019-03-24T08:15:14.167Z,53.50
2019-03-24T08:17:42.609Z,58.80
2019-03-24T08:20:12.360Z,54.20
2019-03-24T08:22:40.956Z,53.00
2019-03-24T08:25:09.537Z,51.67
2019-03-24T08:27:38.094Z,54.03
2019-03-24T08:30:07.431Z,53.67
2019-03-24T08:32:35.916Z,54.23
2019-03-24T08:35:05.815Z,53.63
2019-03-24T08:37:34.261Z,52.73
2019-03-24T08:40:02.858Z,53.37
2019-03-24T08:42:31.272Z,53.73
2019-03-24T08:44:59.665Z,53.53
2019-03-24T08:47:28.075Z,51.97
2019-03-24T08:49:56.460Z,52.80
2019-03-24T08:52:24.899Z,52.43
2019-03-24T08:54:53.413Z,51.67
2019-03-24T08:57:21.809Z,52.13
2019-03-24T08:59:50.204Z,51.40
2019-03-24T09:02:18.664Z,52.67
2019-03-24T09:04:47.108Z,49.93
2019-03-24T09:07:15.532Z,52.57
2019-03-24T09:09:43.942Z,51.33
2019-03-24T09:12:12.375Z,49.93
2019-03-24T09:14:40.784Z,51.50
2019-03-24T09:17:10.068Z,49.23
2019-03-24T09:19:38.549Z,50.57
2019-03-24T09:22:06.984Z,50.90
2019-03-24T09:24:35.361Z,48.90
2019-03-24T09:27:03.781Z,49.20
2019-03-24T09:29:32.188Z,49.47
2019-03-24T09:32:00.602Z,50.23
2019-03-24T09:34:29.034Z,49.30
2019-03-24T09:36:57.482Z,48.67
2019-03-24T09:39:25.952Z,50.03
2019-03-24T09:41:54.408Z,49.63
2019-03-24T09:44:22.827Z,48.37
2019-03-24T09:46:51.262Z,47.73
2019-03-24T09:49:19.674Z,46.73
2019-03-24T09:51:48.132Z,46.43
2019-03-24T09:54:16.548Z,47.30
2019-03-24T09:56:45.073Z,46.47
2019-03-24T09:59:13.523Z,45.93
2019-03-24T10:01:41.953Z,46.10
2019-03-24T10:04:10.372Z,44.00
2019-03-24T10:06:38.816Z,44.50
2019-03-24T10:09:07.381Z,44.57
2019-03-24T10:11:35.808Z,45.87
2019-03-24T10:14:04.201Z,44.90
2019-03-24T10:16:32.603Z,44.03
2019-03-24T10:19:01.047Z,43.97
2019-03-24T10:21:29.549Z,45.70
2019-03-24T10:23:58.018Z,47.57
2019-03-24T10:26:26.424Z,45.57
2019-03-24T10:28:54.879Z,45.73
2019-03-24T10:31:23.309Z,43.53
2019-03-24T10:33:51.731Z,44.40
2019-03-24T10:36:20.121Z,44.80
2019-03-24T10:38:48.532Z,45.10
2019-03-24T10:41:16.952Z,46.77
2019-03-24T10:43:45.354Z,45.53
2019-03-24T10:46:13.764Z,44.87
2019-03-24T10:48:42.204Z,45.23
2019-03-24T10:51:10.672Z,45.83
2019-03-24T10:53:39.090Z,44.00
2019-03-24T10:56:07.484Z,43.73
2019-03-24T10:58:36.017Z,44.20
2019-03-24T11:01:04.515Z,47.23
2019-03-24T11:03:32.900Z,44.07
2019-03-24T11:06:01.293Z,44.20
2019-03-24T11:08:29.811Z,43.33
2019-03-24T11:10:58.302Z,43.13
2019-03-24T11:13:26.738Z,43.10
2019-03-24T11:15:55.170Z,43.63
2019-03-24T11:18:23.562Z,41.70
2019-03-24T11:20:51.945Z,43.93
2019-03-24T11:23:20.349Z,43.00
2019-03-24T11:25:48.737Z,43.97
2019-03-24T11:28:19.172Z,42.47
2019-03-24T11:30:47.247Z,41.83
2019-03-24T11:33:15.693Z,41.50
2019-03-24T11:35:44.089Z,41.47
2019-03-24T11:38:12.487Z,40.50
2019-03-24T11:40:40.877Z,42.40
2019-03-24T11:43:10.917Z,39.63
2019-03-24T11:45:39.332Z,41.53
2019-03-24T11:48:07.778Z,40.80
2019-03-24T11:50:36.200Z,41.60
2019-03-24T11:53:04.668Z,40.87
2019-03-24T11:55:33.056Z,39.40
2019-03-24T11:58:06.099Z,37.50
2019-03-24T12:00:36.558Z,38.93
2019-03-24T12:03:05.055Z,38.13
2019-03-24T12:05:33.521Z,37.63
2019-03-24T12:08:02.105Z,37.93
2019-03-24T12:10:30.490Z,36.80
2019-03-24T12:12:58.876Z,37.57
2019-03-24T12:15:27.277Z,41.33
2019-03-24T12:17:55.673Z,38.40
2019-03-24T12:20:24.065Z,37.93
2019-03-24T12:22:52.457Z,39.20
2019-03-24T12:25:20.848Z,38.77
2019-03-24T12:27:49.248Z,38.33
2019-03-24T12:30:17.875Z,37.27
2019-03-24T12:32:46.308Z,38.20
2019-03-24T12:35:14.749Z,38.40
2019-03-24T12:37:43.096Z,37.83
2019-03-24T12:40:11.834Z,38.50
2019-03-24T12:42:40.297Z,38.30
2019-03-24T12:45:10.062Z,36.87
2019-03-24T12:47:38.447Z,37.30
2019-03-24T12:50:09.835Z,38.03
2019-03-24T12:52:38.549Z,36.67
2019-03-24T12:55:07.507Z,38.37
2019-03-24T12:57:35.878Z,36.83
2019-03-24T13:00:07.293Z,35.83
2019-03-24T13:02:35.660Z,36.40
2019-03-24T13:05:06.544Z,36.53
2019-03-24T13:07:34.931Z,36.20
2019-03-24T13:10:05.075Z,37.27
2019-03-24T13:12:33.466Z,35.10
2019-03-24T13:15:01.880Z,36.43
2019-03-24T13:17:30.266Z,36.47
2019-03-24T13:19:58.703Z,37.20
2019-03-24T13:22:27.078Z,36.73
2019-03-24T13:24:55.518Z,35.63
2019-03-24T13:27:23.861Z,35.13
2019-03-24T13:29:52.262Z,35.37
2019-03-24T13:32:20.650Z,35.47
2019-03-24T13:34:49.043Z,35.10
2019-03-24T13:37:17.434Z,35.20
2019-03-24T13:39:45.822Z,33.83
2019-03-24T13:42:14.220Z,35.70
2019-03-24T13:44:42.615Z,34.90
2019-03-24T13:47:11.021Z,33.03
2019-03-24T13:49:39.410Z,31.13
2019-03-24T13:52:07.805Z,31.60
2019-03-24T13:54:36.196Z,30.53
2019-03-24T13:57:04.601Z,30.13
2019-03-24T13:59:33.010Z,28.63
2019-03-24T14:02:01.405Z,31.27
2019-03-24T14:04:29.802Z,29.07
2019-03-24T14:06:58.204Z,31.23
2019-03-24T14:09:26.596Z,30.03
2019-03-24T14:11:54.991Z,29.97
2019-03-24T14:14:23.379Z,27.30
2019-03-24T14:16:51.786Z,25.40
2019-03-24T14:19:20.186Z,26.47
2019-03-24T14:21:49.466Z,26.23
2019-03-24T14:24:17.862Z,26.30
2019-03-24T14:26:46.252Z,25.43
2019-03-24T14:29:14.639Z,26.73
2019-03-24T14:31:43.034Z,26.43
2019-03-24T14:34:11.425Z,27.07
2019-03-24T14:36:39.817Z,29.23
2019-03-24T14:39:08.228Z,26.77
2019-03-24T14:41:36.639Z,26.03
2019-03-24T14:44:05.148Z,28.30
2019-03-24T14:46:33.538Z,28.03
2019-03-24T14:49:01.928Z,26.27
2019-03-24T14:51:30.331Z,25.57
2019-03-24T14:53:58.737Z,27.17
2019-03-24T14:56:27.204Z,27.27
2019-03-24T14:58:55.601Z,26.07
2019-03-24T15:01:23.993Z,29.72
2019-03-24T15:03:52.458Z,26.73
2019-03-24T15:06:20.850Z,26.67
2019-03-24T15:08:49.242Z,26.40
2019-03-24T15:11:17.706Z,24.80
2019-03-24T15:13:46.104Z,24.53
2019-03-24T15:16:14.497Z,25.77
2019-03-24T15:18:42.978Z,27.90
2019-03-24T15:21:11.660Z,26.33
2019-03-24T15:23:41.022Z,28.47
2019-03-24T15:26:09.422Z,26.47
2019-03-24T15:28:37.803Z,26.93
2019-03-24T15:31:06.207Z,27.93
2019-03-24T15:33:34.598Z,25.83
2019-03-24T15:36:03.004Z,27.63
2019-03-24T15:38:31.429Z,28.23
2019-03-24T15:40:59.816Z,29.03
2019-03-24T15:43:28.208Z,28.50
2019-03-24T15:45:56.618Z,28.27
2019-03-24T15:48:25.017Z,28.53
2019-03-24T15:50:53.406Z,27.83
2019-03-24T15:53:21.798Z,26.40
2019-03-24T15:55:50.187Z,28.00
2019-03-24T15:58:18.614Z,27.50
2019-03-24T16:00:47.814Z,28.77
2019-03-24T16:03:16.225Z,29.13
2019-03-24T16:05:45.665Z,28.77
2019-03-24T16:08:14.172Z,28.23
2019-03-24T16:10:42.566Z,29.47
2019-03-24T16:13:11.044Z,31.40
2019-03-24T16:15:39.506Z,32.03
2019-03-24T16:18:07.909Z,30.30
2019-03-24T16:20:36.309Z,32.80
2019-03-24T16:23:04.779Z,32.00
2019-03-24T16:25:33.171Z,32.17
2019-03-24T16:28:01.588Z,32.27
2019-03-24T16:30:30.086Z,31.47
2019-03-24T16:32:58.517Z,31.17
2019-03-24T16:35:26.959Z,32.30
2019-03-24T16:37:55.374Z,33.30
2019-03-24T16:40:23.850Z,33.73
2019-03-24T16:42:52.255Z,34.87
2019-03-24T16:45:20.716Z,36.98
2019-03-24T16:47:49.106Z,34.60
2019-03-24T16:50:17.498Z,33.73
2019-03-24T16:52:45.893Z,32.67
2019-03-24T16:55:14.295Z,33.43
2019-03-24T16:57:42.735Z,34.03
2019-03-24T17:00:11.392Z,34.67
2019-03-24T17:02:39.776Z,35.73
2019-03-24T17:05:08.248Z,38.20
2019-03-24T17:07:36.646Z,35.37
2019-03-24T17:10:06.870Z,35.00
2019-03-24T17:12:35.290Z,36.53
2019-03-24T17:15:05.053Z,34.53
2019-03-24T17:17:33.441Z,37.97
2019-03-24T17:20:01.860Z,37.20
2019-03-24T17:22:30.318Z,38.50
2019-03-24T17:24:58.643Z,37.00
2019-03-24T17:27:27.041Z,37.17
2019-03-24T17:29:55.438Z,36.70
2019-03-24T17:32:23.823Z,36.97
2019-03-24T17:34:52.221Z,37.40
2019-03-24T17:37:20.612Z,37.67
2019-03-24T17:39:49.010Z,38.97
2019-03-24T17:42:17.410Z,39.50
2019-03-24T17:44:45.817Z,39.50
2019-03-24T17:47:14.247Z,39.23
2019-03-24T17:49:42.648Z,40.23
2019-03-24T17:52:11.042Z,39.67
2019-03-24T17:54:39.468Z,39.67
2019-03-24T17:57:07.930Z,40.67
2019-03-24T17:59:36.333Z,39.23
2019-03-24T18:02:13.983Z,40.10
2019-03-24T18:04:35.365Z,45.77
2019-03-24T18:07:03.792Z,42.60
2019-03-24T18:09:32.205Z,42.37
2019-03-24T18:12:00.671Z,42.60
2019-03-24T18:14:29.088Z,41.60
2019-03-24T18:16:57.486Z,40.93
2019-03-24T18:19:25.883Z,41.83
2019-03-24T18:21:54.319Z,42.17
2019-03-24T18:24:22.693Z,43.93
2019-03-24T18:26:51.082Z,43.13
2019-03-24T18:29:19.472Z,47.90
2019-03-24T18:31:47.870Z,45.27
2019-03-24T18:34:16.287Z,45.00
2019-03-24T18:36:44.707Z,49.25
2019-03-24T18:39:13.098Z,44.53
2019-03-24T18:41:41.492Z,44.53
2019-03-24T18:44:09.883Z,43.97
2019-03-24T18:46:38.278Z,42.77
2019-03-24T18:49:06.665Z,43.63
2019-03-24T18:51:35.120Z,43.40
2019-03-24T18:54:03.537Z,44.73
2019-03-24T18:56:31.932Z,45.20
2019-03-24T18:59:00.365Z,44.10
2019-03-24T19:01:28.752Z,45.80
2019-03-24T19:03:57.149Z,44.33
2019-03-24T19:06:25.543Z,44.03
2019-03-24T19:08:53.938Z,44.57
2019-03-24T19:11:22.407Z,44.50
2019-03-24T19:13:50.810Z,45.33
2019-03-24T19:16:19.213Z,43.90
2019-03-24T19:18:47.631Z,43.83
2019-03-24T19:21:16.032Z,45.20
2019-03-24T19:23:44.455Z,43.17
2019-03-24T19:26:12.855Z,45.45
2019-03-24T19:28:41.243Z,44.50
2019-03-24T19:31:09.639Z,42.80
2019-03-24T19:33:38.175Z,44.20
2019-03-24T19:36:06.638Z,44.80
2019-03-24T19:38:35.092Z,46.27
2019-03-24T19:41:03.489Z,44.60
2019-03-24T19:43:31.896Z,45.07
2019-03-24T19:46:00.344Z,46.27
2019-03-24T19:48:28.696Z,47.17
2019-03-24T19:50:57.091Z,45.47
2019-03-24T19:53:25.491Z,44.33
2019-03-24T19:55:53.949Z,47.37
2019-03-24T19:58:22.368Z,45.20
2019-03-24T20:00:50.764Z,43.30
2019-03-24T20:03:19.158Z,45.20
2019-03-24T20:05:47.549Z,44.73
2019-03-24T20:08:16.922Z,44.87
2019-03-24T20:10:45.313Z,45.47
2019-03-24T20:13:14.644Z,45.77
2019-03-24T20:15:43.023Z,44.17
2019-03-24T20:18:11.412Z,45.90
2019-03-24T20:20:39.869Z,45.53
2019-03-24T20:23:08.303Z,45.97
2019-03-24T20:25:36.694Z,44.73
2019-03-24T20:28:05.164Z,44.87
2019-03-24T20:30:33.556Z,46.53
2019-03-24T20:33:01.988Z,43.17
2019-03-24T20:35:30.361Z,45.43
2019-03-24T20:37:58.769Z,46.60
2019-03-24T20:40:27.230Z,51.30
2019-03-24T20:42:55.620Z,46.43
2019-03-24T20:45:24.064Z,46.30
2019-03-24T20:47:52.452Z,47.27
2019-03-24T20:50:20.848Z,48.30
2019-03-24T20:52:49.237Z,47.20
2019-03-24T20:55:17.621Z,46.03
2019-03-24T20:57:46.011Z,46.70
2019-03-24T21:00:14.939Z,47.00
2019-03-24T21:02:43.339Z,47.03
2019-03-24T21:05:11.889Z,46.13
2019-03-24T21:07:40.279Z,48.50
2019-03-24T21:10:08.903Z,47.37
2019-03-24T21:12:37.380Z,45.90
2019-03-24T21:15:08.009Z,46.63
2019-03-24T21:17:36.407Z,46.90
2019-03-24T21:20:07.222Z,46.65
2019-03-24T21:22:35.676Z,47.07
2019-03-24T21:25:05.604Z,46.43
2019-03-24T21:27:33.996Z,44.40
2019-03-24T21:30:03.515Z,46.17
2019-03-24T21:32:31.908Z,45.73
2019-03-24T21:35:00.472Z,47.07
2019-03-24T21:37:28.927Z,45.30
2019-03-24T21:39:57.299Z,45.83
2019-03-24T21:42:25.735Z,45.00
2019-03-24T21:44:54.089Z,44.97
2019-03-24T21:47:22.472Z,45.90
2019-03-24T21:49:50.895Z,44.47
2019-03-24T21:52:19.274Z,45.00
2019-03-24T21:54:47.663Z,45.57
2019-03-24T21:57:16.058Z,45.00
2019-03-24T21:59:44.454Z,46.63
2019-03-24T22:02:12.911Z,43.93
2019-03-24T22:04:41.320Z,44.60
2019-03-24T22:07:09.711Z,46.13
2019-03-24T22:09:38.123Z,45.10
2019-03-24T22:12:06.507Z,51.70
2019-03-24T22:14:34.900Z,45.80
2019-03-24T22:17:03.289Z,44.93
2019-03-24T22:19:31.734Z,47.13
2019-03-24T22:22:00.094Z,45.50
2019-03-24T22:24:28.494Z,47.00
2019-03-24T22:26:56.874Z,46.07
2019-03-24T22:29:25.292Z,45.80
2019-03-24T22:31:53.655Z,46.50
2019-03-24T22:34:22.046Z,46.77
2019-03-24T22:36:50.451Z,46.23
2019-03-24T22:39:18.840Z,49.60
2019-03-24T22:41:47.339Z,44.33
2019-03-24T22:44:15.699Z,45.50
2019-03-24T22:46:44.190Z,44.70
2019-03-24T22:49:12.586Z,46.60
2019-03-24T22:51:40.967Z,46.20
2019-03-24T22:54:09.365Z,47.93
2019-03-24T22:56:37.831Z,45.33
2019-03-24T22:59:06.238Z,45.90
2019-03-24T23:01:34.694Z,45.33
2019-03-24T23:04:03.110Z,45.40
2019-03-24T23:06:31.519Z,45.20
2019-03-24T23:08:59.928Z,44.60
2019-03-24T23:11:28.317Z,46.50
2019-03-24T23:13:56.714Z,45.73
2019-03-24T23:16:25.102Z,46.17
2019-03-24T23:18:53.504Z,47.20
2019-03-24T23:21:21.895Z,45.90
2019-03-24T23:23:50.295Z,46.63
2019-03-24T23:26:18.688Z,47.03
2019-03-24T23:28:47.084Z,47.53
2019-03-24T23:31:15.469Z,45.17
2019-03-24T23:33:43.861Z,47.87
2019-03-24T23:36:12.262Z,47.33
2019-03-24T23:38:40.713Z,45.40
2019-03-24T23:41:09.095Z,46.57
2019-03-24T23:43:37.496Z,46.77
2019-03-24T23:46:05.958Z,44.07
2019-03-24T23:48:34.334Z,45.50
2019-03-24T23:51:02.726Z,45.90
2019-03-24T23:53:31.117Z,52.00
2019-03-24T23:55:59.516Z,46.43
2019-03-24T23:58:39.956Z,45.20
